Time;durP1;ratioP1;P1;durP2;ratioP2;P2;SDS_P1;SDS_P2;PMS_P1;PMS_P2;Temp;Humidity;BMP_temperature;BMP_pressure;BME280_temperature;BME280_humidity;BME280_pressure;Samples;Min_cycle;Max_cycle;Signal;HPM_P1;HPM_P2
2021/12/07 00:00:20;;;;;;;7.20;4.50;;;;;;;0.01;100.00;100273.06;2074116;28;20025;-66
2021/12/07 00:01:21;;;;;;;6.30;4.30;;;;;;;-0.01;100.00;100276.50;2074057;28;20105;-67
2021/12/07 00:02:21;;;;;;;6.05;3.85;;;;;;;-0.02;100.00;100281.66;2074106;28;20096;-67
2021/12/07 00:03:22;;;;;;;5.85;4.00;;;;;;;-0.03;100.00;100272.25;2074083;28;20026;-67
2021/12/07 00:04:22;;;;;;;9.07;4.60;;;;;;;-0.04;100.00;100268.81;2074047;28;20475;-66
2021/12/07 00:05:22;;;;;;;6.15;4.07;;;;;;;-0.03;100.00;100285.09;2065290;28;20138;-66
2021/12/07 00:06:23;;;;;;;5.80;4.50;;;;;;;-0.04;100.00;100281.66;2065291;28;20160;-66
2021/12/07 00:07:24;;;;;;;6.80;4.55;;;;;;;-0.04;100.00;100284.22;2073898;28;20025;-65
2021/12/07 00:08:25;;;;;;;6.87;4.53;;;;;;;-0.03;100.00;100285.91;2065198;28;20421;-66
2021/12/07 00:09:25;;;;;;;;;;;;;;;-0.02;100.00;100282.50;2057676;28;20054;-66
2021/12/07 00:10:26;;;;;;;8.40;4.15;;;;;;;-0.02;100.00;100287.63;2065216;28;19921;-66
2021/12/07 00:11:29;;;;;;;7.13;4.40;;;;;;;-0.01;100.00;100283.34;2065255;28;20041;-66
2021/12/07 00:12:35;;;;;;;6.72;4.18;;;;;;;-0.02;100.00;100289.34;2073997;28;20041;-66
2021/12/07 00:13:38;;;;;;;6.32;4.25;;;;;;;-0.01;100.00;100289.34;2073940;28;20505;-66
2021/12/07 00:14:41;;;;;;;6.55;5.20;;;;;;;0.00;100.00;100285.06;2064367;28;20065;-68
2021/12/07 00:15:41;;;;;;;6.05;4.80;;;;;;;0.01;100.00;100285.91;2065509;28;20511;-67
2021/12/07 00:16:43;;;;;;;6.23;4.57;;;;;;;0.02;100.00;100277.34;2074044;28;20033;-67
2021/12/07 00:17:44;;;;;;;8.18;5.65;;;;;;;0.05;100.00;100290.16;2065147;28;20029;-67
2021/12/07 00:18:45;;;;;;;5.63;4.70;;;;;;;0.05;100.00;100292.72;2065107;28;20056;-66
2021/12/07 00:19:45;;;;;;;6.95;5.07;;;;;;;0.05;100.00;100290.16;2065161;28;20022;-67
2021/12/07 00:20:45;;;;;;;7.47;5.20;;;;;;;0.06;100.00;100289.28;2065283;28;20053;-67
2021/12/07 00:21:47;;;;;;;9.17;6.00;;;;;;;0.08;100.00;100293.56;2073918;28;20426;-67
2021/12/07 00:22:50;;;;;;;7.93;4.85;;;;;;;0.09;100.00;100304.66;2073907;28;20022;-66
2021/12/07 00:23:51;;;;;;;7.18;5.55;;;;;;;0.10;100.00;100296.13;2073959;28;20509;-67
2021/12/07 00:24:51;;;;;;;7.20;5.40;;;;;;;0.12;100.00;100300.38;2073934;28;20079;-67
2021/12/07 00:25:52;;;;;;;7.28;5.63;;;;;;;0.13;100.00;100296.06;2073923;28;20046;-67
2021/12/07 00:26:53;;;;;;;9.03;5.77;;;;;;;0.14;100.00;100297.78;2073979;28;20030;-67
2021/12/07 00:27:53;;;;;;;9.07;5.47;;;;;;;0.15;100.00;100304.63;2073861;28;20061;-67
2021/12/07 00:28:55;;;;;;;7.43;5.93;;;;;;;0.19;100.00;100310.56;2065111;28;20033;-66
2021/12/07 00:29:56;;;;;;;8.32;6.03;;;;;;;0.20;100.00;100308.00;2065049;28;20083;-67
2021/12/07 00:31:03;;;;;;;8.43;5.20;;;;;;;0.20;100.00;100302.84;2065157;28;20468;-67
2021/12/07 00:33:47;;;;;;;7.47;5.97;;;;;;;0.23;100.00;100307.97;2073954;28;20033;-68
2021/12/07 00:34:55;;;;;;;7.40;5.50;;;;;;;0.26;100.00;100307.09;2073304;28;20033;-67
2021/12/07 00:35:55;;;;;;;9.32;5.70;;;;;;;0.27;100.00;100303.66;2073878;28;20089;-67
2021/12/07 00:36:56;;;;;;;7.23;5.00;;;;;;;0.27;100.00;100303.66;2073834;28;20099;-66
2021/12/07 00:37:57;;;;;;;8.33;6.07;;;;;;;0.30;100.00;100307.94;2073795;28;20053;-68
2021/12/07 00:38:58;;;;;;;9.40;6.07;;;;;;;0.32;100.00;100316.47;2065044;28;20029;-67
2021/12/07 00:39:59;;;;;;;8.43;6.05;;;;;;;0.35;100.00;100316.44;2065107;28;20373;-67
2021/12/07 00:41:01;;;;;;;;;;;;;;;0.36;100.00;100318.13;2074169;28;20029;-67
2021/12/07 00:42:02;;;;;;;8.38;5.85;;;;;;;0.39;100.00;100320.69;2073744;28;19955;-68
2021/12/07 00:43:03;;;;;;;10.30;6.70;;;;;;;0.44;100.00;100320.66;2073788;28;20044;-67
2021/12/07 00:44:04;;;;;;;9.13;6.95;;;;;;;0.46;100.00;100316.34;2073531;28;20032;-67
2021/12/07 00:45:06;;;;;;;8.52;6.13;;;;;;;0.46;100.00;100318.91;2073723;28;20057;-66
2021/12/07 00:46:08;;;;;;;10.70;6.40;;;;;;;0.46;100.00;100319.75;2073693;28;20032;-66
2021/12/07 00:47:08;;;;;;;8.73;5.85;;;;;;;0.50;100.00;100324.00;2073642;28;20029;-67
2021/12/07 00:48:09;;;;;;;9.00;6.67;;;;;;;0.54;100.00;100334.25;2073772;28;20410;-67
2021/12/07 00:49:10;;;;;;;10.23;6.67;;;;;;;0.53;100.00;100322.25;2064930;28;20022;-67
2021/12/07 00:50:11;;;;;;;9.45;6.47;;;;;;;0.53;100.00;100329.97;2056879;28;20027;-67
2021/12/07 00:51:11;;;;;;;10.05;6.47;;;;;;;0.54;100.00;100327.38;2065008;28;20022;-67
2021/12/07 00:52:12;;;;;;;10.67;6.43;;;;;;;0.59;100.00;100329.91;2073720;28;20026;-67
2021/12/07 00:53:13;;;;;;;10.50;6.53;;;;;;;0.62;100.00;100329.91;2073747;28;20030;-67
2021/12/07 00:54:14;;;;;;;8.30;5.97;;;;;;;0.67;100.00;100332.41;2073647;28;20069;-67
2021/12/07 00:55:19;;;;;;;8.13;6.47;;;;;;;0.69;100.00;100333.25;2073572;28;20036;-67
2021/12/07 00:56:20;;;;;;;9.93;6.03;;;;;;;0.71;100.00;100339.22;2073626;28;20468;-67
2021/12/07 00:57:21;;;;;;;10.27;6.65;;;;;;;0.74;100.00;100337.47;2073674;28;20045;-67
2021/12/07 00:58:24;;;;;;;10.95;6.78;;;;;;;0.78;100.00;100343.44;2073595;28;20479;-68
2021/12/07 00:59:25;;;;;;;9.63;6.47;;;;;;;0.83;100.00;100343.38;2073704;28;20083;-67
2021/12/07 01:00:29;;;;;;;10.27;6.20;;;;;;;0.86;100.00;100343.38;2073723;28;20391;-67
2021/12/07 01:01:31;;;;;;;14.70;6.82;;;;;;;0.89;100.00;100348.47;2064786;28;20034;-67
2021/12/07 01:02:31;;;;;;;;;;;;;;;0.90;100.00;100345.88;2065423;28;20026;-66
2021/12/07 01:03:32;;;;;;;11.20;5.85;;;;;;;0.95;100.00;100348.41;2073562;28;19952;-66
2021/12/07 01:04:33;;;;;;;12.27;7.35;;;;;;;0.97;100.00;100359.53;2073714;28;20041;-67
2021/12/07 01:05:35;;;;;;;11.17;6.43;;;;;;;0.97;100.00;100351.81;2073653;28;20030;-68
2021/12/07 01:06:49;;;;;;;10.77;6.88;;;;;;;1.02;100.00;100351.75;2073607;28;20025;-68
2021/12/07 01:07:59;;;;;;;12.40;6.53;;;;;;;1.10;100.00;100361.97;2073531;28;20105;-68
2021/12/07 01:24:48;;;;;;;12.13;6.60;;;;;;;1.66;100.00;100398.19;2073498;28;20030;-66
2021/12/07 01:25:52;;;;;;;10.20;6.83;;;;;;;1.69;100.00;100401.56;2073295;28;20030;-65
2021/12/07 01:26:53;;;;;;;12.63;6.55;;;;;;;1.69;100.00;100402.44;2073410;28;20049;-65
2021/12/07 01:27:56;;;;;;;11.57;7.05;;;;;;;1.72;100.00;100402.41;2073542;28;20139;-65
2021/12/07 01:28:57;;;;;;;11.05;7.10;;;;;;;1.75;100.00;100402.31;2073514;28;20106;-65
2021/12/07 01:30:10;;;;;;;12.67;7.03;;;;;;;1.77;100.00;100410.03;2073530;28;20021;-64
2021/12/07 01:31:24;;;;;;;12.35;6.32;;;;;;;1.77;100.00;100404.88;2064745;28;20281;-66
2021/12/07 01:35:18;;;;;;;12.27;5.30;;;;;;;1.70;100.00;100410.97;2073585;28;20029;-66
2021/12/07 01:36:20;;;;;;;10.18;5.40;;;;;;;1.68;100.00;100411.03;2073248;28;20030;-67
2021/12/07 01:42:55;;;;;;;10.77;6.37;;;;;;;1.61;100.00;100419.69;2073539;28;20081;-66
2021/12/07 01:44:44;;;;;;;14.60;6.00;;;;;;;1.65;100.00;100421.34;2073365;28;20293;-65
2021/12/07 02:00:27;;;;;;;12.73;5.07;;;;;;;1.94;100.00;100440.69;2073422;28;20442;-67
2021/12/07 02:01:28;;;;;;;10.10;4.38;;;;;;;1.95;100.00;100444.97;2073291;28;20026;-67
2021/12/07 02:02:29;;;;;;;10.70;4.70;;;;;;;1.96;100.00;100451.84;2073303;28;20121;-67
2021/12/07 02:03:29;;;;;;;12.65;4.97;;;;;;;1.94;100.00;100448.41;2064571;28;20662;-66
2021/12/07 02:04:30;;;;;;;10.43;5.07;;;;;;;1.97;100.00;100448.38;2064713;28;20057;-66
2021/12/07 02:05:31;;;;;;;14.85;5.57;;;;;;;1.95;100.00;100444.97;2073387;28;20080;-66
2021/12/07 02:06:31;;;;;;;16.10;4.90;;;;;;;1.93;100.00;100446.72;2073337;28;20034;-66
2021/12/07 02:07:32;;;;;;;11.43;4.80;;;;;;;1.93;100.00;100454.44;2073323;28;20030;-66
2021/12/07 02:08:32;;;;;;;7.47;4.03;;;;;;;1.91;100.00;100449.31;2064543;28;20076;-67
2021/12/07 02:09:35;;;;;;;16.23;5.33;;;;;;;1.92;100.00;100455.31;2064619;28;20472;-66
2021/12/07 02:10:37;;;;;;;7.50;4.00;;;;;;;1.97;100.00;100460.41;2064553;28;20088;-65
2021/12/07 02:11:44;;;;;;;;;;;;;;;1.99;100.00;100462.06;2057008;28;20039;-67
2021/12/07 02:12:49;;;;;;;10.43;4.07;;;;;;;1.98;100.00;100460.38;2065608;28;19914;-65
2021/12/07 02:14:50;;;;;;;10.43;3.83;;;;;;;1.94;100.00;100463.88;2073437;28;20042;-67
2021/12/07 02:15:50;;;;;;;10.97;4.83;;;;;;;1.95;100.00;100473.28;2064536;28;20025;-66
2021/12/07 02:16:54;;;;;;;14.13;4.47;;;;;;;1.94;100.00;100466.44;2064555;28;20026;-65
2021/12/07 02:17:55;;;;;;;9.73;3.97;;;;;;;1.95;100.00;100470.72;2065076;28;20431;-67
2021/12/07 02:18:55;;;;;;;13.88;4.22;;;;;;;1.95;100.00;100468.13;2073328;28;20052;-66
2021/12/07 02:19:55;;;;;;;13.77;4.43;;;;;;;1.93;100.00;100469.88;2073326;28;20029;-66
2021/12/07 02:21:12;;;;;;;10.00;4.77;;;;;;;1.95;100.00;100465.56;2073358;28;20022;-67
2021/12/07 02:22:12;;;;;;;8.13;3.70;;;;;;;1.99;100.00;100468.97;2073305;28;20463;-67
2021/12/07 02:23:13;;;;;;;8.52;3.95;;;;;;;1.98;100.00;100468.09;2073328;28;20029;-68
2021/12/07 02:24:13;;;;;;;12.23;4.17;;;;;;;1.95;100.00;100465.56;2073367;28;20026;-66
2021/12/07 02:25:16;;;;;;;9.97;3.10;;;;;;;1.93;100.00;100470.75;2073299;28;20026;-66
2021/12/07 02:26:16;;;;;;;11.35;3.50;;;;;;;1.99;100.00;100474.13;2073208;28;20078;-68
2021/12/07 02:27:17;;;;;;;11.15;4.32;;;;;;;2.00;100.00;100474.09;2073290;28;20088;-67
2021/12/07 02:28:17;;;;;;;6.20;3.43;;;;;;;2.03;100.00;100480.91;2073319;28;20491;-66
2021/12/07 02:29:19;;;;;;;11.20;3.30;;;;;;;2.02;100.00;100486.94;2073281;28;20025;-67
2021/12/07 02:30:22;;;;;;;10.23;2.88;;;;;;;2.01;100.00;100480.06;2073308;28;20537;-67
2021/12/07 02:31:22;;;;;;;12.02;4.05;;;;;;;2.01;100.00;100491.22;2064496;28;20027;-67
2021/12/07 02:32:23;;;;;;;8.60;2.92;;;;;;;1.99;100.00;100485.25;2056453;28;20023;-67
2021/12/07 02:33:23;;;;;;;7.60;3.13;;;;;;;1.97;100.00;100484.41;2064484;28;20558;-66
2021/12/07 02:34:25;;;;;;;13.80;4.03;;;;;;;1.99;100.00;100481.84;2064571;28;20037;-67
2021/12/07 02:35:27;;;;;;;8.13;2.45;;;;;;;1.96;100.00;100485.31;2064645;28;20154;-66
2021/12/07 02:36:28;;;;;;;8.73;3.50;;;;;;;1.94;100.00;100484.44;2073271;28;20411;-66
2021/12/07 02:37:30;;;;;;;17.40;4.03;;;;;;;1.95;100.00;100487.91;2073207;28;20034;-66
2021/12/07 02:38:31;;;;;;;6.30;2.88;;;;;;;1.91;100.00;100495.66;2074495;28;20439;-66
2021/12/07 02:39:34;;;;;;;10.32;3.75;;;;;;;1.92;100.00;100491.34;2074768;28;20096;-66
2021/12/07 02:40:35;;;;;;;14.43;3.17;;;;;;;1.90;100.00;100499.09;2074688;28;20057;-67
2021/12/07 02:41:36;;;;;;;10.30;3.50;;;;;;;1.92;100.00;100492.19;2074687;28;20048;-66
2021/12/07 02:42:36;;;;;;;13.23;3.47;;;;;;;1.93;100.00;100493.06;2065814;28;20496;-67
2021/12/07 02:43:37;;;;;;;11.90;3.23;;;;;;;1.90;100.00;100498.22;2066000;28;20032;-66
2021/12/07 02:44:37;;;;;;;9.87;3.93;;;;;;;1.86;100.00;100496.56;2074431;28;20069;-67
2021/12/07 02:45:37;;;;;;;12.37;3.33;;;;;;;1.82;100.00;100502.63;2074712;28;20109;-67
2021/12/07 02:46:39;;;;;;;12.57;3.23;;;;;;;1.78;100.00;100497.50;2074623;28;20034;-67
2021/12/07 02:47:39;;;;;;;10.38;2.78;;;;;;;1.85;100.00;100505.16;2074716;28;20021;-66
2021/12/07 02:48:40;;;;;;;14.53;3.23;;;;;;;1.87;100.00;100505.97;2074741;28;20025;-67
2021/12/07 02:49:40;;;;;;;7.33;2.67;;;;;;;1.91;100.00;100505.06;2074671;28;20076;-68
2021/12/07 02:50:40;;;;;;;10.23;2.90;;;;;;;1.91;100.00;100508.50;2074677;28;20474;-66
2021/12/07 02:51:41;;;;;;;8.90;3.77;;;;;;;1.92;100.00;100509.38;2074635;28;20490;-66
2021/12/07 02:52:41;;;;;;;8.97;3.10;;;;;;;1.92;100.00;100506.81;2074634;28;20051;-66
2021/12/07 02:53:42;;;;;;;12.93;2.83;;;;;;;1.89;100.00;100519.69;2074625;28;20029;-66
2021/12/07 02:54:45;;;;;;;9.82;2.50;;;;;;;1.88;100.00;100518.84;2074674;28;20312;-66
2021/12/07 02:55:45;;;;;;;7.43;2.60;;;;;;;1.84;100.00;100513.75;2074589;28;20049;-66
2021/12/07 02:56:46;;;;;;;6.83;2.60;;;;;;;1.82;100.00;100523.22;2074457;28;20053;-66
2021/12/07 02:57:47;;;;;;;7.17;2.63;;;;;;;1.79;100.00;100519.78;2074564;28;20029;-66
2021/12/07 02:58:48;;;;;;;;;;;;;;;1.80;100.00;100524.09;2066261;28;20030;-66
2021/12/07 02:59:58;;;;;;;8.75;2.40;;;;;;;1.76;100.00;100532.72;2065880;28;19913;-66
2021/12/07 03:01:06;;;;;;;13.23;2.97;;;;;;;1.74;100.00;100524.13;2074523;28;20548;-66
2021/12/07 03:02:09;;;;;;;7.75;2.15;;;;;;;1.71;100.00;100529.31;2074517;28;20064;-66
2021/12/07 03:03:12;;;;;;;10.23;2.15;;;;;;;1.69;100.00;100527.63;2074568;28;20391;-65
2021/12/07 03:04:19;;;;;;;10.00;2.35;;;;;;;1.68;100.00;100529.38;2074532;28;20054;-67
2021/12/07 03:06:05;;;;;;;7.32;2.25;;;;;;;1.69;100.00;100531.06;2074465;28;20104;-66
2021/12/07 03:09:35;;;;;;;8.38;2.83;;;;;;;1.68;100.00;100544.81;2074511;28;20132;-67
2021/12/07 03:26:17;;;;;;;9.88;2.65;;;;;;;1.62;100.00;100547.44;2074273;28;20057;-67
2021/12/07 03:27:17;;;;;;;11.23;2.50;;;;;;;1.59;100.00;100555.16;2074375;28;20118;-66
2021/12/07 03:28:17;;;;;;;10.83;2.40;;;;;;;1.58;100.00;100553.47;2074344;28;20060;-66
2021/12/07 03:29:18;;;;;;;12.83;3.57;;;;;;;1.53;100.00;100553.50;2074339;28;20038;-67
2021/12/07 03:30:19;;;;;;;7.20;2.23;;;;;;;1.49;100.00;100557.84;2074344;28;20083;-66
2021/12/07 03:31:20;;;;;;;15.50;2.80;;;;;;;1.51;100.00;100563.81;2074389;28;20054;-66
2021/12/07 03:32:20;;;;;;;9.88;2.22;;;;;;;1.50;100.00;100561.25;2074337;28;20422;-66
2021/12/07 03:33:21;;;;;;;9.60;2.00;;;;;;;1.46;100.00;100563.00;2074403;28;20065;-66
2021/12/07 03:34:21;;;;;;;11.40;2.30;;;;;;;1.45;100.00;100563.00;2074340;28;20447;-66
2021/12/07 03:35:21;;;;;;;4.97;2.23;;;;;;;1.43;100.00;100568.16;2074382;28;20030;-66
2021/12/07 03:36:22;;;;;;;8.37;1.97;;;;;;;1.37;100.00;100565.66;2074366;28;20054;-67
2021/12/07 03:37:23;;;;;;;11.13;2.58;;;;;;;1.37;100.00;100573.38;2074215;28;20701;-66
2021/12/07 03:38:23;;;;;;;10.10;3.20;;;;;;;1.38;100.00;100572.50;2074250;28;20026;-66
2021/12/07 03:39:24;;;;;;;15.13;2.78;;;;;;;1.37;100.00;100575.94;2074229;28;20026;-67
2021/12/07 03:40:24;;;;;;;8.13;2.33;;;;;;;1.37;100.00;100573.38;2074209;28;20372;-66
2021/12/07 03:41:25;;;;;;;11.20;2.40;;;;;;;1.32;100.00;100575.97;2074264;28;20037;-66
2021/12/07 03:42:26;;;;;;;11.20;2.65;;;;;;;1.35;100.00;100578.53;2074209;28;20018;-67
2021/12/07 03:43:26;;;;;;;9.60;2.77;;;;;;;1.37;100.00;100581.09;2074219;28;20501;-66
2021/12/07 03:44:26;;;;;;;8.90;2.60;;;;;;;1.36;100.00;100585.38;2074036;28;20096;-66
2021/12/07 03:45:27;;;;;;;14.23;2.60;;;;;;;1.45;100.00;100594.75;2074193;28;20110;-67
2021/12/07 03:46:27;;;;;;;5.93;2.00;;;;;;;1.44;100.00;100592.19;2074139;28;20033;-67
2021/12/07 03:47:27;;;;;;;9.53;2.53;;;;;;;1.47;100.00;100593.00;2074242;28;20032;-66
2021/12/07 03:48:28;;;;;;;9.90;2.43;;;;;;;1.46;100.00;100595.56;2074225;28;20459;-67
2021/12/07 03:49:29;;;;;;;10.43;2.60;;;;;;;1.46;100.00;100605.84;2074152;28;20372;-65
2021/12/07 03:50:30;;;;;;;7.67;3.13;;;;;;;1.51;100.00;100602.38;2074145;28;20026;-67
2021/12/07 03:51:30;;;;;;;11.38;2.90;;;;;;;1.48;100.00;100599.88;2074180;28;20026;-66
2021/12/07 03:52:30;;;;;;;6.33;1.97;;;;;;;1.40;100.00;100601.63;2074093;28;20033;-66
2021/12/07 03:53:31;;;;;;;10.00;1.83;;;;;;;1.41;100.00;100603.34;2074091;28;20034;-65
2021/12/07 03:54:31;;;;;;;6.80;1.77;;;;;;;1.46;100.00;100596.44;2074078;28;20080;-66
2021/12/07 03:55:32;;;;;;;11.23;2.47;;;;;;;1.42;100.00;100602.47;2074110;28;20029;-65
2021/12/07 03:56:33;;;;;;;12.73;2.33;;;;;;;1.45;100.00;100597.31;2074101;28;20285;-65
2021/12/07 03:57:33;;;;;;;12.45;2.40;;;;;;;1.45;100.00;100589.59;2074075;28;20112;-65
2021/12/07 03:58:34;;;;;;;7.93;2.30;;;;;;;1.41;100.00;100593.91;2073933;28;20053;-66
2021/12/07 03:59:34;;;;;;;10.68;2.58;;;;;;;1.34;100.00;100596.53;2074086;28;20391;-65
2021/12/07 04:00:37;;;;;;;13.60;2.53;;;;;;;1.34;100.00;100596.53;2074026;28;20065;-66
2021/12/07 04:01:38;;;;;;;7.75;1.90;;;;;;;1.31;100.00;100602.56;2065326;28;20034;-65
2021/12/07 04:02:40;;;;;;;11.97;2.13;;;;;;;1.32;100.00;100598.25;2065371;28;20466;-66
2021/12/07 04:03:42;;;;;;;8.73;2.63;;;;;;;1.28;100.00;100603.44;2074035;28;20054;-66
2021/12/07 04:04:43;;;;;;;11.70;2.25;;;;;;;1.27;100.00;100595.75;2074037;28;20076;-66
2021/12/07 04:05:54;;;;;;;10.55;2.22;;;;;;;1.26;100.00;100600.03;2074075;28;20079;-65
2021/12/07 04:06:54;;;;;;;8.90;2.35;;;;;;;1.28;100.00;100588.03;2073954;28;20057;-66
2021/12/07 04:07:55;;;;;;;12.30;2.23;;;;;;;1.27;100.00;100595.75;2074031;28;20021;-66
2021/12/07 04:08:55;;;;;;;5.97;1.90;;;;;;;1.27;100.00;100591.44;2074033;28;20108;-65
2021/12/07 04:09:55;;;;;;;5.80;1.67;;;;;;;1.29;100.00;100591.44;2073960;28;20556;-66
2021/12/07 04:10:56;;;;;;;9.40;2.40;;;;;;;1.32;100.00;100595.69;2074042;28;20038;-65
2021/12/07 04:11:56;;;;;;;8.60;2.10;;;;;;;1.35;100.00;100595.66;2074036;28;20014;-65
2021/12/07 04:12:56;;;;;;;6.50;1.73;;;;;;;1.31;100.00;100601.69;2074007;28;20017;-66
2021/12/07 04:13:56;;;;;;;10.27;1.73;;;;;;;1.21;100.00;100595.78;2073906;28;20068;-66
2021/12/07 04:14:57;;;;;;;7.60;2.13;;;;;;;1.19;100.00;100603.50;2073945;28;20058;-66
2021/12/07 04:15:58;;;;;;;7.00;2.13;;;;;;;1.17;100.00;100609.53;2074017;28;20633;-66
2021/12/07 04:16:59;;;;;;;9.52;2.10;;;;;;;1.10;100.00;100612.13;2073958;28;20017;-66
2021/12/07 04:17:59;;;;;;;8.30;1.80;;;;;;;1.10;100.00;100614.69;2073950;28;20132;-66
2021/12/07 04:19:00;;;;;;;9.03;2.23;;;;;;;1.08;100.00;100611.28;2073947;28;20022;-65
2021/12/07 04:20:01;;;;;;;8.32;1.80;;;;;;;1.11;100.00;100611.28;2073885;28;20033;-66
2021/12/07 04:21:02;;;;;;;11.48;2.20;;;;;;;1.09;100.00;100609.59;2073983;28;20113;-66
2021/12/07 04:22:03;;;;;;;11.35;2.10;;;;;;;1.03;100.00;100603.59;2073868;28;20053;-66
2021/12/07 04:23:05;;;;;;;9.43;2.07;;;;;;;1.03;100.00;100608.75;2065200;28;20022;-67
2021/12/07 04:24:05;;;;;;;14.02;2.65;;;;;;;1.07;100.00;100611.31;2065295;28;20034;-65
2021/12/07 04:25:08;;;;;;;8.57;2.00;;;;;;;1.13;100.00;100611.28;2065173;28;20030;-66
2021/12/07 04:26:11;;;;;;;10.10;2.45;;;;;;;1.17;100.00;100619.81;2065411;28;20595;-66
2021/12/07 04:27:11;;;;;;;7.82;2.55;;;;;;;1.10;100.00;100619.84;2073895;28;20032;-66
2021/12/07 04:28:12;;;;;;;15.07;2.17;;;;;;;1.10;100.00;100621.56;2065122;28;20053;-66
2021/12/07 04:29:12;;;;;;;9.07;1.98;;;;;;;1.07;100.00;100617.31;2065216;28;20157;-65
2021/12/07 04:30:16;;;;;;;6.57;2.00;;;;;;;1.10;100.00;100624.97;2073933;28;20080;-66
2021/12/07 04:31:17;;;;;;;8.55;2.40;;;;;;;1.08;100.00;100615.56;2065028;28;20353;-66
2021/12/07 04:32:18;;;;;;;3.97;1.75;;;;;;;1.06;100.00;100612.16;2065211;28;20037;-66
2021/12/07 04:33:18;;;;;;;11.00;1.87;;;;;;;1.05;100.00;100620.72;2073925;28;20058;-66
2021/12/07 04:34:18;;;;;;;9.10;1.73;;;;;;;1.01;100.00;100615.63;2073727;28;20041;-66
2021/12/07 04:35:20;;;;;;;12.23;2.20;;;;;;;1.05;100.00;100620.72;2073850;28;20053;-65
2021/12/07 04:36:20;;;;;;;6.25;1.73;;;;;;;1.06;100.00;100622.44;2073800;28;20024;-66
2021/12/07 04:37:20;;;;;;;10.87;2.47;;;;;;;1.03;100.00;100626.72;2073823;28;20411;-66
2021/12/07 04:38:21;;;;;;;9.10;2.10;;;;;;;1.05;100.00;100621.59;2073753;28;20041;-66
2021/12/07 04:39:21;;;;;;;6.80;1.73;;;;;;;1.05;100.00;100619.03;2073893;28;20037;-65
2021/12/07 04:40:25;;;;;;;9.57;1.60;;;;;;;1.04;100.00;100617.31;2073851;28;20125;-66
2021/12/07 04:41:32;;;;;;;11.60;1.83;;;;;;;0.98;100.00;100615.63;2073834;28;20030;-66
2021/12/07 04:42:32;;;;;;;7.43;2.08;;;;;;;0.93;100.00;100627.69;2073794;28;20164;-66
2021/12/07 04:43:34;;;;;;;8.73;1.83;;;;;;;0.90;100.00;100627.69;2073779;28;20152;-65
2021/12/07 04:44:41;;;;;;;6.97;1.98;;;;;;;0.90;100.00;100628.50;2073472;28;20061;-66
2021/12/07 04:47:07;;;;;;;8.90;1.70;;;;;;;0.96;100.00;100634.50;2065343;28;20558;-65
2021/12/07 04:49:46;;;;;;;10.63;2.17;;;;;;;0.97;100.00;100644.78;2066519;28;20452;-65
2021/12/07 04:58:35;;;;;;;9.02;1.98;;;;;;;1.06;100.00;100640.44;2073716;28;20463;-66
2021/12/07 04:59:36;;;;;;;8.23;1.90;;;;;;;1.06;100.00;100643.00;2073709;28;20018;-66
2021/12/07 05:00:37;;;;;;;5.63;1.80;;;;;;;1.02;100.00;100639.59;2073438;28;20058;-66
2021/12/07 05:01:37;;;;;;;11.60;2.67;;;;;;;0.97;100.00;100633.63;2073584;28;20511;-66
2021/12/07 05:02:40;;;;;;;8.83;1.70;;;;;;;0.91;100.00;100624.25;2073667;28;20557;-66
2021/12/07 05:03:41;;;;;;;7.68;1.58;;;;;;;0.90;100.00;100617.41;2064826;28;20308;-66
2021/12/07 05:04:42;;;;;;;11.82;2.53;;;;;;;0.92;100.00;100631.09;2064849;28;20049;-66
2021/12/07 05:05:47;;;;;;;9.40;2.63;;;;;;;0.92;100.00;100636.22;2064927;28;20517;-67
2021/12/07 05:06:51;;;;;;;7.72;2.05;;;;;;;0.91;100.00;100649.94;2073519;28;20026;-66
2021/12/07 05:07:54;;;;;;;5.28;2.00;;;;;;;0.88;100.00;100660.22;2073569;28;20018;-65
2021/12/07 05:09:21;;;;;;;7.60;1.80;;;;;;;0.81;100.00;100651.69;2064779;28;20080;-66
2021/12/07 05:10:23;;;;;;;9.32;2.13;;;;;;;0.79;100.00;100655.16;2067542;28;20046;-66
2021/12/07 05:11:43;;;;;;;8.18;2.10;;;;;;;0.77;100.00;100652.59;2073549;28;20036;-64
2021/12/07 05:14:16;;;;;;;6.47;1.83;;;;;;;0.79;100.00;100660.28;2073719;28;20379;-66
2021/12/07 05:15:25;;;;;;;15.35;2.83;;;;;;;0.72;100.00;100655.16;2064737;28;20487;-65
2021/12/07 05:18:24;;;;;;;9.32;2.50;;;;;;;0.79;100.00;100655.16;2073687;28;20136;-66
2021/12/07 05:19:05;;;;;;;7.40;2.00;;;;;;;0.83;100.00;100661.97;2066134;28;20034;-65
2021/12/07 05:24:07;;;;;;;6.22;2.28;;;;;;;0.72;100.00;100673.16;2073538;28;20029;-67
2021/12/07 05:38:20;;;;;;;9.82;2.85;;;;;;;0.60;100.00;100701.44;2073517;28;20025;-66
2021/12/07 05:39:20;;;;;;;9.53;3.37;;;;;;;0.54;100.00;100701.50;2064725;28;20030;-65
2021/12/07 05:40:29;;;;;;;14.07;3.10;;;;;;;0.51;100.00;100698.06;2064770;28;20076;-66
2021/12/07 05:41:30;;;;;;;10.15;3.35;;;;;;;0.49;100.00;100689.53;2073498;28;20030;-66
2021/12/07 05:42:30;;;;;;;10.30;4.73;;;;;;;0.50;100.00;100705.75;2073534;28;20034;-65
2021/12/07 05:43:30;;;;;;;10.37;3.50;;;;;;;0.47;100.00;100696.34;2064828;28;20030;-64
2021/12/07 05:44:31;;;;;;;10.17;2.70;;;;;;;0.49;100.00;100710.06;2064686;28;20061;-66
2021/12/07 05:45:35;;;;;;;12.27;3.87;;;;;;;0.48;100.00;100717.75;2073487;28;20681;-65
2021/12/07 05:46:35;;;;;;;9.93;2.97;;;;;;;0.47;100.00;100719.47;2064547;28;20030;-65
2021/12/07 05:47:36;;;;;;;11.27;3.20;;;;;;;0.49;100.00;100722.91;2064668;28;20034;-65
2021/12/07 05:48:36;;;;;;;7.60;3.15;;;;;;;0.51;100.00;100717.72;2073460;28;20526;-66
2021/12/07 05:49:37;;;;;;;11.57;3.60;;;;;;;0.51;100.00;100718.59;2064672;28;20026;-68
2021/12/07 05:50:39;;;;;;;9.37;3.00;;;;;;;0.53;100.00;100723.75;2064789;28;20022;-66
2021/12/07 05:51:39;;;;;;;7.65;2.70;;;;;;;0.57;100.00;100722.00;2073418;28;20030;-66
2021/12/07 05:52:40;;;;;;;15.03;4.60;;;;;;;0.54;100.00;100722.88;2064602;28;20395;-66
2021/12/07 05:53:40;;;;;;;9.37;3.60;;;;;;;0.51;100.00;100728.00;2064666;28;20110;-66
2021/12/07 05:54:41;;;;;;;11.07;3.90;;;;;;;0.52;100.00;100732.31;2064766;28;20409;-66
2021/12/07 05:55:41;;;;;;;14.53;3.00;;;;;;;0.56;100.00;100728.00;2064682;28;20023;-66
2021/12/07 05:56:41;;;;;;;10.98;2.78;;;;;;;0.58;100.00;100729.69;2056618;28;20022;-65
2021/12/07 05:57:42;;;;;;;10.07;3.17;;;;;;;0.55;100.00;100734.84;2064779;28;20081;-66
2021/12/07 05:58:43;;;;;;;7.68;3.15;;;;;;;0.54;100.00;100745.16;2064657;28;20030;-66
2021/12/07 05:59:43;;;;;;;11.23;2.97;;;;;;;0.51;100.00;100739.16;2064691;28;20579;-67
2021/12/07 06:00:45;;;;;;;10.00;2.97;;;;;;;0.48;100.00;100749.41;2064574;28;20520;-66
2021/12/07 06:01:46;;;;;;;8.43;3.10;;;;;;;0.45;100.00;100744.28;2064938;28;20101;-66
2021/12/07 06:02:46;;;;;;;12.23;3.67;;;;;;;0.44;100.00;100746.88;2073350;28;20038;-66
2021/12/07 06:03:46;;;;;;;10.63;3.13;;;;;;;0.47;100.00;100747.72;2073485;28;20072;-66
2021/12/07 06:04:47;;;;;;;18.13;3.57;;;;;;;0.48;100.00;100749.41;2073435;28;20021;-66
2021/12/07 06:05:47;;;;;;;12.10;3.37;;;;;;;0.54;100.00;100747.72;2073391;28;20076;-66
2021/12/07 06:06:47;;;;;;;11.10;3.30;;;;;;;0.53;100.00;100743.41;2073329;28;20029;-66
2021/12/07 06:07:48;;;;;;;15.97;4.50;;;;;;;0.46;100.00;100735.75;2073431;28;20060;-65
2021/12/07 06:08:48;;;;;;;9.80;2.83;;;;;;;0.42;100.00;100743.44;2073458;28;20549;-66
2021/12/07 06:09:48;;;;;;;8.93;3.07;;;;;;;0.40;100.00;100740.88;2073388;28;20038;-66
2021/12/07 06:10:48;;;;;;;8.23;2.73;;;;;;;0.41;100.00;100742.56;2073469;28;20032;-66
2021/12/07 06:11:50;;;;;;;13.57;3.73;;;;;;;0.37;100.00;100746.88;2073285;28;20022;-66
2021/12/07 06:12:50;;;;;;;12.50;3.28;;;;;;;0.41;100.00;100741.75;2073636;28;20044;-66
2021/12/07 06:13:51;;;;;;;14.07;3.55;;;;;;;0.37;100.00;100746.88;2074994;28;20022;-66
2021/12/07 06:14:55;;;;;;;12.52;3.75;;;;;;;0.34;100.00;100746.03;2074945;28;20467;-66
2021/12/07 06:15:57;;;;;;;11.20;2.90;;;;;;;0.32;100.00;100747.75;2074934;28;20483;-66
2021/12/07 06:16:57;;;;;;;12.13;4.07;;;;;;;0.39;100.00;100752.00;2074910;28;20026;-67
2021/12/07 06:17:58;;;;;;;9.53;4.23;;;;;;;0.38;100.00;100752.88;2074921;28;20139;-67